createdAt,value
2019-05-19T00:01:56.946Z,12.80
2019-05-19T00:04:25.267Z,12.90
2019-05-19T00:06:53.508Z,12.90
2019-05-19T00:09:21.749Z,12.90
2019-05-19T00:11:50.059Z,12.80
2019-05-19T00:14:18.296Z,12.80
2019-05-19T00:16:46.553Z,12.90
2019-05-19T00:19:26.211Z,12.90
2019-05-19T00:21:44.961Z,12.90
2019-05-19T00:24:13.186Z,12.80
2019-05-19T00:26:41.538Z,12.80
2019-05-19T00:29:09.768Z,12.80
2019-05-19T00:31:38.067Z,12.80
2019-05-19T00:34:06.369Z,12.80
2019-05-19T00:36:34.652Z,12.80
2019-05-19T00:39:04.431Z,12.80
2019-05-19T00:41:32.684Z,12.80
2019-05-19T00:44:00.916Z,12.80
2019-05-19T00:46:29.162Z,12.80
2019-05-19T00:48:57.471Z,12.70
2019-05-19T00:51:25.769Z,12.70
2019-05-19T00:53:54.010Z,12.70
2019-05-19T00:56:22.255Z,12.70
2019-05-19T00:58:50.485Z,12.70
2019-05-19T01:01:18.750Z,12.70
2019-05-19T01:03:47.008Z,12.70
2019-05-19T01:06:15.316Z,12.60
2019-05-19T01:08:43.556Z,12.60
2019-05-19T01:11:11.913Z,12.60
2019-05-19T01:13:40.242Z,12.60
2019-05-19T01:16:08.497Z,12.60
2019-05-19T01:18:36.765Z,12.60
2019-05-19T01:21:05.078Z,12.70
2019-05-19T01:23:33.331Z,12.60
2019-05-19T01:26:01.553Z,12.60
2019-05-19T01:28:29.817Z,12.40
2019-05-19T01:30:58.032Z,12.40
2019-05-19T01:33:26.343Z,12.40
2019-05-19T01:35:54.674Z,12.40
2019-05-19T01:38:22.990Z,12.50
2019-05-19T01:40:51.238Z,12.50
2019-05-19T01:43:19.495Z,12.50
2019-05-19T01:45:47.734Z,12.50
2019-05-19T01:48:15.987Z,12.50
2019-05-19T01:50:44.227Z,12.50
2019-05-19T01:53:12.472Z,12.50
2019-05-19T01:55:40.711Z,12.50
2019-05-19T01:58:09.038Z,12.50
2019-05-19T02:00:37.439Z,12.50
2019-05-19T02:03:05.692Z,12.50
2019-05-19T02:05:33.963Z,12.50
2019-05-19T02:08:02.307Z,12.40
2019-05-19T02:10:30.620Z,12.50
2019-05-19T02:12:58.933Z,12.50
2019-05-19T02:15:27.206Z,12.40
2019-05-19T02:17:55.442Z,12.40
2019-05-19T02:20:32.805Z,12.40
2019-05-19T02:22:53.649Z,12.40
2019-05-19T02:25:21.971Z,12.30
2019-05-19T02:27:50.238Z,11.90
2019-05-19T02:30:19.121Z,11.70
2019-05-19T02:32:47.354Z,11.70
2019-05-19T02:35:15.602Z,11.80
2019-05-19T02:37:43.835Z,12.00
2019-05-19T02:40:12.112Z,12.00
2019-05-19T02:42:41.317Z,12.10
2019-05-19T02:45:09.751Z,12.10
2019-05-19T02:47:38.526Z,12.10
2019-05-19T02:50:06.970Z,12.20
2019-05-19T02:52:35.185Z,12.20
2019-05-19T02:55:03.480Z,12.30
2019-05-19T02:57:32.387Z,12.20
2019-05-19T03:00:00.726Z,12.20
2019-05-19T03:02:28.970Z,12.20
2019-05-19T03:04:57.238Z,12.20
2019-05-19T03:07:26.942Z,12.30
2019-05-19T03:09:55.203Z,12.30
2019-05-19T03:12:23.459Z,12.30
2019-05-19T03:14:51.725Z,12.30
2019-05-19T03:17:19.975Z,12.30
2019-05-19T03:19:48.276Z,12.30
2019-05-19T03:22:16.563Z,12.30
2019-05-19T03:24:44.790Z,12.30
2019-05-19T03:27:13.069Z,12.30
2019-05-19T03:29:43.004Z,12.30
2019-05-19T03:32:21.901Z,12.30
2019-05-19T03:34:50.133Z,12.30
2019-05-19T03:37:18.390Z,12.30
2019-05-19T03:39:46.674Z,12.30
2019-05-19T03:42:14.945Z,12.30
2019-05-19T03:45:02.669Z,12.30
2019-05-19T03:47:30.917Z,12.30
2019-05-19T03:49:59.166Z,12.30
2019-05-19T03:52:27.781Z,12.30
2019-05-19T03:54:56.055Z,12.30
2019-05-19T03:57:24.438Z,12.30
2019-05-19T03:59:52.690Z,12.40
2019-05-19T04:02:20.943Z,12.40
2019-05-19T04:04:49.178Z,12.50
2019-05-19T04:07:17.444Z,12.40
2019-05-19T04:09:45.685Z,12.40
2019-05-19T04:12:13.949Z,12.50
2019-05-19T04:14:42.225Z,12.40
2019-05-19T04:17:10.489Z,12.50
2019-05-19T04:19:38.814Z,12.40
2019-05-19T04:22:07.051Z,12.40
2019-05-19T04:24:37.340Z,12.50
2019-05-19T04:27:05.591Z,12.40
2019-05-19T04:29:33.826Z,12.40
2019-05-19T04:32:02.065Z,12.40
2019-05-19T04:34:30.326Z,12.40
2019-05-19T04:36:58.553Z,12.40
2019-05-19T04:39:26.818Z,12.40
2019-05-19T04:41:55.043Z,12.40
2019-05-19T04:44:23.740Z,12.40
2019-05-19T04:46:51.963Z,12.40
2019-05-19T04:49:20.240Z,12.40
2019-05-19T04:52:05.176Z,12.50
2019-05-19T04:54:18.439Z,12.50
2019-05-19T04:56:46.681Z,12.50
2019-05-19T04:59:14.930Z,12.60
2019-05-19T05:01:43.185Z,12.60
2019-05-19T05:04:30.881Z,12.70
2019-05-19T05:06:59.109Z,12.70
2019-05-19T05:09:27.380Z,12.70
2019-05-19T05:11:55.629Z,12.80
2019-05-19T05:14:23.881Z,12.80
2019-05-19T05:16:52.145Z,12.90
2019-05-19T05:19:20.368Z,13.00
2019-05-19T05:21:48.645Z,13.10
2019-05-19T05:24:16.874Z,13.20
2019-05-19T05:26:45.121Z,13.30
2019-05-19T05:29:13.379Z,13.40
2019-05-19T05:31:41.644Z,13.60
2019-05-19T05:34:09.920Z,13.70
2019-05-19T05:36:38.190Z,13.80
2019-05-19T05:39:06.770Z,14.00
2019-05-19T05:41:35.034Z,14.10
2019-05-19T05:44:03.282Z,14.20
2019-05-19T05:46:31.621Z,14.30
2019-05-19T05:48:59.837Z,14.40
2019-05-19T05:51:28.089Z,14.40
2019-05-19T05:53:56.325Z,14.60
2019-05-19T05:56:24.619Z,14.70
2019-05-19T05:58:52.862Z,14.80
2019-05-19T06:01:21.126Z,14.80
2019-05-19T06:03:49.403Z,14.60
2019-05-19T06:06:17.712Z,14.70
2019-05-19T06:08:45.982Z,14.80
2019-05-19T06:11:14.238Z,14.90
2019-05-19T06:13:42.514Z,14.90
2019-05-19T06:16:10.813Z,14.90
2019-05-19T06:18:39.093Z,14.90
2019-05-19T06:21:07.413Z,14.90
2019-05-19T06:23:35.652Z,14.90
2019-05-19T06:26:03.907Z,15.00
2019-05-19T06:28:32.156Z,15.00
2019-05-19T06:31:00.407Z,15.00
2019-05-19T06:33:28.664Z,15.00
2019-05-19T06:35:56.910Z,15.00
2019-05-19T06:38:25.171Z,14.80
2019-05-19T06:40:53.435Z,14.80
2019-05-19T06:43:21.699Z,14.90
2019-05-19T06:45:49.927Z,15.00
2019-05-19T06:48:18.221Z,15.10
2019-05-19T06:50:46.462Z,15.30
2019-05-19T06:53:14.934Z,15.40
2019-05-19T06:55:43.358Z,15.50
2019-05-19T06:58:11.629Z,15.70
2019-05-19T07:00:40.010Z,15.80
2019-05-19T07:03:08.380Z,15.90
2019-05-19T07:05:36.652Z,16.10
2019-05-19T07:08:04.934Z,16.10
2019-05-19T07:10:33.188Z,16.10
2019-05-19T07:13:01.431Z,16.10
2019-05-19T07:15:29.695Z,16.20
2019-05-19T07:17:57.929Z,16.20
2019-05-19T07:20:26.193Z,16.20
2019-05-19T07:22:54.428Z,16.20
2019-05-19T07:25:22.709Z,16.20
2019-05-19T07:27:50.957Z,16.20
2019-05-19T07:30:19.271Z,16.20
2019-05-19T07:32:47.525Z,16.30
2019-05-19T07:35:15.851Z,16.30
2019-05-19T07:37:44.092Z,16.40
2019-05-19T07:40:12.364Z,16.40
2019-05-19T07:42:40.603Z,16.50
2019-05-19T07:45:08.961Z,16.60
2019-05-19T07:47:37.252Z,16.70
2019-05-19T07:50:05.874Z,16.90
2019-05-19T07:52:34.366Z,17.00
2019-05-19T07:55:03.281Z,17.20
2019-05-19T07:57:31.506Z,17.30
2019-05-19T07:59:59.784Z,17.30
2019-05-19T08:02:28.007Z,17.20
2019-05-19T08:04:56.284Z,17.40
2019-05-19T08:07:24.532Z,17.50
2019-05-19T08:09:52.797Z,17.50
2019-05-19T08:12:21.041Z,17.50
2019-05-19T08:14:49.284Z,17.60
2019-05-19T08:17:17.519Z,17.50
2019-05-19T08:19:45.846Z,17.40
2019-05-19T08:22:14.069Z,17.40
2019-05-19T08:24:42.318Z,17.40
2019-05-19T08:27:10.582Z,17.50
2019-05-19T08:29:38.833Z,17.40
2019-05-19T08:32:07.116Z,17.40
2019-05-19T08:34:35.366Z,17.40
2019-05-19T08:37:03.606Z,17.60
2019-05-19T08:39:32.076Z,17.70
2019-05-19T08:42:00.390Z,17.60
2019-05-19T08:44:28.703Z,17.60
2019-05-19T08:46:56.958Z,17.60
2019-05-19T08:49:25.312Z,17.60
2019-05-19T08:51:53.686Z,17.60
2019-05-19T08:54:21.925Z,17.70
2019-05-19T08:56:50.204Z,17.80
2019-05-19T08:59:18.451Z,17.80
2019-05-19T09:01:46.700Z,17.90
2019-05-19T09:04:14.943Z,17.80
2019-05-19T09:06:43.194Z,17.80
2019-05-19T09:09:11.541Z,17.80
2019-05-19T09:11:39.828Z,17.90
2019-05-19T09:14:08.079Z,17.90
2019-05-19T09:16:36.316Z,17.90
2019-05-19T09:19:04.867Z,18.00
2019-05-19T09:21:33.141Z,18.00
2019-05-19T09:24:01.506Z,18.10
2019-05-19T09:26:29.794Z,18.10
2019-05-19T09:28:58.261Z,18.10
2019-05-19T09:31:26.580Z,18.00
2019-05-19T09:33:54.840Z,17.90
2019-05-19T09:36:23.165Z,17.90
2019-05-19T09:38:51.658Z,18.00
2019-05-19T09:41:19.930Z,18.20
2019-05-19T09:43:48.205Z,18.20
2019-05-19T09:46:16.482Z,18.30
2019-05-19T09:48:44.823Z,18.50
2019-05-19T09:51:13.047Z,18.60
2019-05-19T09:53:41.425Z,18.80
2019-05-19T09:56:09.713Z,18.80
2019-05-19T09:58:37.973Z,18.80
2019-05-19T10:01:06.219Z,19.00
2019-05-19T10:03:34.477Z,19.20
2019-05-19T10:06:02.826Z,19.10
2019-05-19T10:08:36.115Z,19.10
2019-05-19T10:11:34.829Z,19.00
2019-05-19T10:14:03.080Z,19.20
2019-05-19T10:16:31.398Z,19.20
2019-05-19T10:18:59.659Z,19.10
2019-05-19T10:21:27.991Z,19.30
2019-05-19T10:23:56.287Z,19.40
2019-05-19T10:26:24.576Z,19.50
2019-05-19T10:28:52.807Z,19.60
2019-05-19T10:31:21.054Z,19.80
2019-05-19T10:33:49.461Z,20.00
2019-05-19T10:36:17.843Z,20.10
2019-05-19T10:38:46.085Z,20.20
2019-05-19T10:41:14.518Z,20.40
2019-05-19T10:43:42.780Z,20.30
2019-05-19T10:46:11.039Z,20.40
2019-05-19T10:48:39.280Z,20.60
2019-05-19T10:51:07.549Z,20.70
2019-05-19T10:53:35.790Z,20.80
2019-05-19T10:56:04.056Z,20.80
2019-05-19T10:58:32.363Z,20.60
2019-05-19T11:01:00.654Z,20.60
2019-05-19T11:03:28.889Z,20.50
2019-05-19T11:05:57.155Z,20.30
2019-05-19T11:08:25.418Z,20.30
2019-05-19T11:10:53.744Z,20.30
2019-05-19T11:13:21.982Z,20.30
2019-05-19T11:15:50.237Z,20.20
2019-05-19T11:18:18.485Z,20.20
2019-05-19T11:20:46.739Z,20.20
2019-05-19T11:23:15.011Z,20.20
2019-05-19T11:25:51.006Z,20.10
2019-05-19T11:28:13.268Z,19.90
2019-05-19T11:30:41.506Z,20.00
2019-05-19T11:33:09.776Z,19.90
2019-05-19T11:35:37.989Z,19.80
2019-05-19T11:38:06.252Z,19.80
2019-05-19T11:40:34.491Z,20.00
2019-05-19T11:43:02.747Z,20.10
2019-05-19T11:45:30.983Z,20.40
2019-05-19T11:47:59.234Z,20.40
2019-05-19T11:50:27.466Z,20.30
2019-05-19T11:52:55.920Z,20.40
2019-05-19T11:55:24.220Z,20.50
2019-05-19T11:57:54.805Z,20.70
2019-05-19T12:00:23.052Z,20.70
2019-05-19T12:02:51.334Z,20.60
2019-05-19T12:05:19.581Z,20.60
2019-05-19T12:07:47.880Z,20.70
2019-05-19T12:10:16.113Z,20.90
2019-05-19T12:12:44.376Z,20.90
2019-05-19T12:15:12.618Z,20.90
2019-05-19T12:17:40.910Z,20.90
2019-05-19T12:20:09.159Z,20.90
2019-05-19T12:22:37.523Z,20.90
2019-05-19T12:25:06.202Z,20.80
2019-05-19T12:27:34.504Z,20.80
2019-05-19T12:30:02.784Z,20.70
2019-05-19T12:32:31.025Z,20.70
2019-05-19T12:34:59.280Z,20.80
2019-05-19T12:37:27.531Z,21.00
2019-05-19T12:39:55.785Z,21.10
2019-05-19T12:42:24.057Z,21.30
2019-05-19T12:44:52.310Z,21.40
2019-05-19T12:47:20.546Z,21.50
2019-05-19T12:49:48.891Z,21.60
2019-05-19T12:52:17.157Z,21.70
2019-05-19T12:54:45.433Z,21.60
2019-05-19T12:57:13.736Z,21.60
2019-05-19T12:59:41.980Z,21.80
2019-05-19T13:02:10.241Z,21.70
2019-05-19T13:04:38.693Z,21.70
2019-05-19T13:07:07.144Z,21.80
2019-05-19T13:09:35.391Z,22.00
2019-05-19T13:12:03.713Z,22.10
2019-05-19T13:14:32.080Z,22.30
2019-05-19T13:17:00.307Z,22.40
2019-05-19T13:19:28.579Z,22.50
2019-05-19T13:21:56.829Z,22.70
2019-05-19T13:24:25.076Z,22.70
2019-05-19T13:26:56.545Z,22.60
2019-05-19T13:29:23.286Z,22.50
2019-05-19T13:31:51.562Z,22.40
2019-05-19T13:34:19.811Z,22.50
2019-05-19T13:36:48.061Z,22.60
2019-05-19T13:39:16.308Z,22.60
2019-05-19T13:41:44.596Z,22.80
2019-05-19T13:44:12.849Z,22.90
2019-05-19T13:46:41.113Z,23.00
2019-05-19T13:49:09.347Z,23.00
2019-05-19T13:51:37.608Z,22.80
2019-05-19T13:54:05.931Z,22.80
2019-05-19T13:56:34.177Z,22.70
2019-05-19T13:59:02.492Z,22.80
2019-05-19T14:01:30.779Z,22.70
2019-05-19T14:03:59.009Z,22.70
2019-05-19T14:06:27.478Z,22.70
2019-05-19T14:08:55.748Z,22.90
2019-05-19T14:11:24.040Z,23.00
2019-05-19T14:13:52.308Z,23.20
2019-05-19T14:16:20.536Z,23.30
2019-05-19T14:18:48.818Z,23.30
2019-05-19T14:21:17.145Z,23.50
2019-05-19T14:23:45.466Z,23.50
2019-05-19T14:26:13.688Z,23.50
2019-05-19T14:28:41.998Z,23.40
2019-05-19T14:31:10.234Z,23.20
2019-05-19T14:33:38.596Z,23.00
2019-05-19T14:36:06.848Z,22.90
2019-05-19T14:38:35.178Z,22.90
2019-05-19T14:41:03.530Z,22.90
2019-05-19T14:43:33.460Z,22.90
2019-05-19T14:46:01.801Z,23.00
2019-05-19T14:48:30.069Z,23.00
2019-05-19T14:50:58.310Z,23.20
2019-05-19T14:53:26.586Z,23.20
2019-05-19T14:55:54.857Z,23.30
2019-05-19T14:58:23.155Z,23.00
2019-05-19T15:00:51.379Z,23.30
2019-05-19T15:03:19.687Z,23.20
2019-05-19T15:05:47.975Z,22.20
2019-05-19T15:08:16.392Z,20.30
2019-05-19T15:10:44.664Z,19.40
2019-05-19T15:13:12.901Z,18.80
2019-05-19T15:15:41.190Z,18.30
2019-05-19T15:18:09.423Z,17.90
2019-05-19T15:20:37.690Z,17.60
2019-05-19T15:23:05.944Z,17.60
2019-05-19T15:25:34.189Z,17.80
2019-05-19T15:28:05.259Z,18.00
2019-05-19T15:30:32.423Z,18.10
2019-05-19T15:33:00.660Z,18.00
2019-05-19T15:35:28.948Z,18.00
2019-05-19T15:37:57.180Z,18.00
2019-05-19T15:40:25.462Z,18.00
2019-05-19T15:42:53.687Z,17.90
2019-05-19T15:45:21.942Z,17.80
2019-05-19T15:47:50.216Z,17.80
2019-05-19T15:50:18.466Z,17.90
2019-05-19T15:52:46.714Z,17.90
2019-05-19T15:55:14.951Z,17.90
2019-05-19T15:57:43.197Z,17.90
2019-05-19T16:00:11.491Z,17.80
2019-05-19T16:02:39.725Z,17.70
2019-05-19T16:05:07.999Z,17.70
2019-05-19T16:07:36.236Z,17.60
2019-05-19T16:10:06.573Z,17.60
2019-05-19T16:12:34.859Z,17.60
2019-05-19T16:15:04.397Z,17.60
2019-05-19T16:17:32.642Z,17.50
2019-05-19T16:20:00.903Z,17.50
2019-05-19T16:22:29.173Z,17.50
2019-05-19T16:24:57.406Z,17.20
2019-05-19T16:27:25.713Z,17.10
2019-05-19T16:29:54.000Z,17.10
2019-05-19T16:32:22.279Z,17.00
2019-05-19T16:34:50.539Z,17.10
2019-05-19T16:37:18.798Z,17.10
2019-05-19T16:39:47.031Z,16.70
2019-05-19T16:42:15.334Z,16.60
2019-05-19T16:44:43.629Z,16.40
2019-05-19T16:47:11.889Z,16.20
2019-05-19T16:49:40.122Z,16.00
2019-05-19T16:52:09.075Z,15.90
2019-05-19T16:54:42.092Z,16.10
2019-05-19T16:57:08.945Z,16.20
2019-05-19T16:59:37.203Z,16.40
2019-05-19T17:02:05.483Z,16.50
2019-05-19T17:04:33.733Z,16.70
2019-05-19T17:07:03.097Z,16.80
2019-05-19T17:09:31.588Z,16.80
2019-05-19T17:11:59.883Z,16.90
2019-05-19T17:14:40.964Z,16.90
2019-05-19T17:17:09.237Z,17.00
2019-05-19T17:19:37.486Z,17.00
2019-05-19T17:22:05.763Z,17.00
2019-05-19T17:24:34.030Z,17.00
2019-05-19T17:27:02.319Z,17.00
2019-05-19T17:29:30.666Z,17.10
2019-05-19T17:32:05.929Z,17.10
2019-05-19T17:34:29.039Z,17.20
2019-05-19T17:36:57.353Z,17.20
2019-05-19T17:39:25.622Z,17.20
2019-05-19T17:41:53.893Z,17.20
2019-05-19T17:44:22.182Z,17.00
2019-05-19T17:46:50.434Z,17.00
2019-05-19T17:49:18.734Z,16.80
2019-05-19T17:51:46.989Z,16.80
2019-05-19T17:54:15.316Z,16.80
2019-05-19T17:56:43.558Z,16.70
2019-05-19T17:59:16.601Z,16.70
2019-05-19T18:01:42.477Z,16.80
2019-05-19T18:04:10.757Z,16.80
2019-05-19T18:06:39.000Z,16.90
2019-05-19T18:09:07.302Z,16.90
2019-05-19T18:11:35.549Z,17.00
2019-05-19T18:14:03.823Z,17.00
2019-05-19T18:16:32.126Z,17.00
2019-05-19T18:19:00.392Z,17.00
2019-05-19T18:21:28.697Z,16.90
2019-05-19T18:23:57.027Z,16.90
2019-05-19T18:26:25.351Z,16.80
2019-05-19T18:28:53.606Z,16.80
2019-05-19T18:31:21.879Z,16.70
2019-05-19T18:33:50.141Z,16.70
2019-05-19T18:36:18.407Z,16.60
2019-05-19T18:38:46.657Z,16.50
2019-05-19T18:41:14.989Z,16.30
2019-05-19T18:43:43.254Z,16.30
2019-05-19T18:46:11.516Z,16.20
2019-05-19T18:48:39.918Z,16.00
2019-05-19T18:51:08.188Z,15.90
2019-05-19T18:53:36.448Z,15.90
2019-05-19T18:56:04.709Z,16.00
2019-05-19T18:58:32.972Z,16.10
2019-05-19T19:01:01.286Z,16.10
2019-05-19T19:03:29.637Z,16.10
2019-05-19T19:05:57.896Z,16.10
2019-05-19T19:08:26.142Z,16.20
2019-05-19T19:10:54.427Z,16.20
2019-05-19T19:13:22.689Z,16.20
2019-05-19T19:15:51.003Z,16.20
2019-05-19T19:18:19.281Z,16.20
2019-05-19T19:20:47.530Z,16.20
2019-05-19T19:23:15.791Z,16.20
2019-05-19T19:25:44.018Z,16.20
2019-05-19T19:28:12.478Z,16.20
2019-05-19T19:30:40.732Z,16.20
2019-05-19T19:33:09.019Z,16.20
2019-05-19T19:35:39.529Z,16.20
2019-05-19T19:38:07.261Z,16.10
2019-05-19T19:40:35.523Z,16.10
2019-05-19T19:43:03.912Z,16.10
2019-05-19T19:45:32.161Z,16.00
2019-05-19T19:48:00.414Z,15.80
2019-05-19T19:50:28.911Z,15.50
2019-05-19T19:52:57.323Z,15.50
2019-05-19T19:55:25.538Z,15.50
2019-05-19T19:57:53.892Z,15.60
2019-05-19T20:00:40.483Z,15.60
2019-05-19T20:03:08.888Z,15.70
2019-05-19T20:05:37.408Z,15.70
2019-05-19T20:08:06.532Z,15.70
2019-05-19T20:10:38.570Z,15.70
2019-05-19T20:13:06.906Z,15.70
2019-05-19T20:15:36.824Z,15.80
2019-05-19T20:18:05.061Z,15.80
2019-05-19T20:20:33.334Z,15.80
2019-05-19T20:23:01.584Z,15.70
2019-05-19T20:25:29.838Z,15.70
2019-05-19T20:27:58.094Z,15.70
2019-05-19T20:30:35.212Z,15.70
2019-05-19T20:32:56.368Z,15.80
2019-05-19T20:35:24.662Z,15.80
2019-05-19T20:37:52.905Z,15.80
2019-05-19T20:40:21.185Z,15.80
2019-05-19T20:42:49.392Z,15.80
2019-05-19T20:45:17.668Z,15.70
2019-05-19T20:47:45.973Z,15.60
2019-05-19T20:50:14.290Z,15.50
2019-05-19T20:52:42.517Z,15.40
2019-05-19T20:55:10.777Z,15.10
2019-05-19T20:57:39.055Z,15.10
2019-05-19T21:00:07.393Z,15.10
2019-05-19T21:02:35.622Z,15.10
2019-05-19T21:05:04.117Z,15.10
2019-05-19T21:07:32.397Z,15.10
2019-05-19T21:10:00.642Z,15.20
2019-05-19T21:12:28.876Z,15.30
2019-05-19T21:14:57.177Z,15.30
2019-05-19T21:17:25.418Z,15.40
2019-05-19T21:19:53.667Z,15.40
2019-05-19T21:22:21.945Z,15.40
2019-05-19T21:24:50.198Z,15.30
2019-05-19T21:27:18.866Z,15.20
2019-05-19T21:29:47.296Z,15.20
2019-05-19T21:32:15.547Z,15.20
2019-05-19T21:34:43.794Z,15.10
2019-05-19T21:37:12.070Z,15.10
2019-05-19T21:39:40.319Z,15.10
2019-05-19T21:42:08.574Z,15.20
2019-05-19T21:44:36.842Z,15.20
2019-05-19T21:47:05.108Z,15.20
2019-05-19T21:49:33.337Z,15.20
2019-05-19T21:52:01.614Z,15.20
2019-05-19T21:54:29.918Z,15.20
2019-05-19T21:56:58.172Z,15.20
2019-05-19T21:59:26.418Z,15.10
2019-05-19T22:01:54.745Z,15.10
2019-05-19T22:04:23.008Z,15.10
2019-05-19T22:07:02.149Z,15.10
2019-05-19T22:09:30.377Z,15.10
2019-05-19T22:11:58.639Z,15.20
2019-05-19T22:14:26.951Z,15.10
2019-05-19T22:16:55.232Z,15.20
2019-05-19T22:19:23.546Z,15.20
2019-05-19T22:21:51.829Z,15.10
2019-05-19T22:24:20.065Z,15.10
2019-05-19T22:26:48.340Z,15.10
2019-05-19T22:29:16.590Z,15.10
2019-05-19T22:31:44.858Z,15.10
2019-05-19T22:34:13.093Z,15.10
2019-05-19T22:36:41.380Z,15.10
2019-05-19T22:39:09.663Z,15.10
2019-05-19T22:41:37.882Z,15.00
2019-05-19T22:44:06.133Z,14.90
2019-05-19T22:46:34.369Z,14.90
2019-05-19T22:49:02.657Z,14.80
2019-05-19T22:51:30.898Z,14.80
2019-05-19T22:53:59.141Z,14.80
2019-05-19T22:56:27.394Z,14.80
2019-05-19T22:58:55.669Z,14.90
2019-05-19T23:01:23.892Z,14.90
2019-05-19T23:03:52.139Z,14.90
2019-05-19T23:06:20.402Z,14.80
2019-05-19T23:08:48.672Z,14.80
2019-05-19T23:11:16.916Z,14.80
2019-05-19T23:13:45.175Z,14.70
2019-05-19T23:16:13.476Z,14.70
2019-05-19T23:18:41.757Z,14.70
2019-05-19T23:21:09.996Z,14.60
2019-05-19T23:23:38.249Z,14.60
2019-05-19T23:26:06.490Z,14.60
2019-05-19T23:28:34.737Z,14.60
2019-05-19T23:31:03.003Z,14.60
2019-05-19T23:33:31.244Z,14.60
2019-05-19T23:35:59.482Z,14.60
2019-05-19T23:38:27.710Z,14.60
2019-05-19T23:40:56.004Z,14.50
2019-05-19T23:43:24.249Z,14.50
2019-05-19T23:45:52.521Z,14.40
2019-05-19T23:48:20.777Z,14.40
2019-05-19T23:50:49.045Z,14.40
2019-05-19T23:53:17.277Z,14.40
2019-05-19T23:55:45.529Z,14.40
2019-05-19T23:58:13.764Z,14.40
